Time;durP1;ratioP1;P1;durP2;ratioP2;P2;SDS_P1;SDS_P2;PMS_P1;PMS_P2;Temp;Humidity;BMP_temperature;BMP_pressure;BME280_temperature;BME280_humidity;BME280_pressure;Samples;Min_cycle;Max_cycle;Signal;HPM_P1;HPM_P2
2022/07/20 00:00:24;;;;;;;9.55;4.53;;;;;;;15.10;76.12;99488.16;4955563;29;20142;-78
2022/07/20 00:02:51;;;;;;;9.93;4.65;;;;;;;15.03;76.38;99483.94;4955182;29;20055;-77
2022/07/20 00:05:18;;;;;;;7.05;4.03;;;;;;;14.86;76.72;99468.50;4938281;29;20067;-78
2022/07/20 00:07:45;;;;;;;8.73;4.22;;;;;;;14.95;76.44;99478.84;4955686;29;20062;-78
2022/07/20 00:12:58;;;;;;;9.75;4.65;;;;;;;14.94;76.77;99496.38;4955087;29;20087;-79
2022/07/20 00:15:25;;;;;;;7.63;4.53;;;;;;;14.69;76.40;99443.44;4954972;29;20427;-79
2022/07/20 00:17:52;;;;;;;10.45;4.57;;;;;;;14.84;76.49;99483.44;4954943;29;20057;-77
2022/07/20 00:20:18;;;;;;;9.80;4.82;;;;;;;14.89;76.45;99494.75;4955361;29;20126;-80
2022/07/20 00:22:47;;;;;;;7.93;4.38;;;;;;;14.65;76.92;99452.28;4955020;29;20055;-79
2022/07/20 00:25:14;;;;;;;10.10;4.57;;;;;;;14.81;76.74;99481.75;4954775;28;20085;-79
2022/07/20 00:27:41;;;;;;;9.27;4.68;;;;;;;14.77;76.71;99464.31;4937344;29;20150;-78
2022/07/20 00:30:09;;;;;;;6.22;3.92;;;;;;;14.66;76.80;99458.41;4954691;29;20078;-78
2022/07/20 00:32:37;;;;;;;9.00;4.50;;;;;;;14.71;77.02;99475.81;4955128;29;20063;-80
2022/07/20 00:35:10;;;;;;;6.78;4.40;;;;;;;14.63;77.07;99461.09;4954609;29;20113;-79
2022/07/20 00:37:39;;;;;;;8.82;4.20;;;;;;;14.51;77.16;99459.53;4937934;29;20114;-79
2022/07/20 00:40:07;;;;;;;9.30;4.70;;;;;;;14.58;76.93;99455.91;4954568;29;20059;-78
2022/07/20 00:42:35;;;;;;;11.43;4.38;;;;;;;14.55;76.51;99461.25;4954892;29;20114;-78
2022/07/20 00:45:05;;;;;;;12.90;4.47;;;;;;;14.49;76.64;99456.91;4953560;29;20094;-79
2022/07/20 00:47:32;;;;;;;5.40;4.07;;;;;;;14.53;76.57;99465.63;4954849;29;20067;-79
2022/07/20 00:49:59;;;;;;;9.43;4.50;;;;;;;14.22;76.63;99405.78;4954578;29;20057;-80
2022/07/20 00:52:26;;;;;;;8.35;4.13;;;;;;;14.41;76.77;99447.44;4952680;29;20473;-79
2022/07/20 00:54:54;;;;;;;7.28;4.20;;;;;;;14.32;76.78;99419.59;4935276;29;20422;-78
2022/07/20 00:57:21;;;;;;;5.63;4.30;;;;;;;14.47;76.58;99449.97;4935370;29;20087;-79
2022/07/20 00:59:49;;;;;;;7.45;4.18;;;;;;;14.40;76.31;99438.72;4935458;29;20521;-79
2022/07/20 01:02:15;;;;;;;10.93;4.65;;;;;;;14.45;76.31;99446.50;4934022;29;20062;-79
2022/07/20 01:04:42;;;;;;;7.18;4.22;;;;;;;14.42;76.08;99442.16;4935289;29;20077;-79
2022/07/20 01:07:10;;;;;;;5.25;3.92;;;;;;;14.42;76.01;99447.44;4918223;29;20095;-80
2022/07/20 01:09:36;;;;;;;7.85;3.90;;;;;;;14.39;75.97;99441.34;4935323;29;20095;-78
2022/07/20 01:12:04;;;;;;;9.63;4.30;;;;;;;14.41;76.08;99434.31;4935349;29;20103;-78
2022/07/20 01:14:31;;;;;;;7.03;4.30;;;;;;;14.41;75.85;99422.06;4935323;29;20052;-79
2022/07/20 01:16:58;;;;;;;8.50;3.95;;;;;;;14.37;75.39;99427.38;4935200;29;20589;-80
2022/07/20 01:19:25;;;;;;;8.70;4.20;;;;;;;14.37;75.11;99433.53;4935058;29;20056;-79
2022/07/20 01:21:52;;;;;;;9.70;4.13;;;;;;;14.23;75.43;99390.88;4935214;29;20569;-79
2022/07/20 01:24:19;;;;;;;6.20;4.18;;;;;;;14.16;75.31;99366.50;4935135;29;20106;-79
2022/07/20 01:26:46;;;;;;;6.35;4.00;;;;;;;14.48;75.04;99422.81;4918334;29;20051;-78
2022/07/20 01:29:14;;;;;;;8.73;4.20;;;;;;;14.51;74.75;99412.22;4933839;29;20492;-79
2022/07/20 01:31:41;;;;;;;8.45;4.80;;;;;;;14.51;74.42;99413.09;4935435;29;20150;-79
2022/07/20 01:34:09;;;;;;;8.95;4.57;;;;;;;14.53;74.23;99419.16;4944779;29;20071;-79
2022/07/20 01:36:36;;;;;;;9.45;5.15;;;;;;;14.42;74.10;99400.13;4947017;29;20063;-78
2022/07/20 01:39:03;;;;;;;12.90;5.30;;;;;;;14.52;74.11;99393.81;4950082;29;20060;-78
2022/07/20 01:41:30;;;;;;;10.18;6.72;;;;;;;14.63;73.82;99408.53;4955750;29;20061;-79
2022/07/20 01:43:57;;;;;;;9.95;5.70;;;;;;;14.42;73.57;99363.34;4946663;29;20090;-79
2022/07/20 01:46:24;;;;;;;11.02;6.10;;;;;;;14.70;73.22;99403.09;4953677;29;20083;-79
2022/07/20 01:48:51;;;;;;;8.70;6.15;;;;;;;14.77;72.68;99416.97;4938705;29;20072;-79
2022/07/20 01:51:19;;;;;;;10.40;5.93;;;;;;;14.71;72.53;99394.31;4938150;29;20055;-79
2022/07/20 01:53:46;;;;;;;10.38;6.05;;;;;;;14.86;72.25;99405.41;4938594;29;20060;-79
2022/07/20 01:56:13;;;;;;;6.78;4.72;;;;;;;14.92;71.52;99400.88;4938439;29;20106;-80
2022/07/20 01:58:40;;;;;;;7.97;4.88;;;;;;;14.94;71.82;99393.81;4938644;29;20058;-79
2022/07/20 02:01:08;;;;;;;8.75;5.10;;;;;;;15.10;71.15;99393.47;4938180;29;20051;-78
2022/07/20 02:03:35;;;;;;;8.98;5.03;;;;;;;14.95;70.35;99329.81;4938679;29;20090;-79
2022/07/20 02:06:02;;;;;;;7.03;5.43;;;;;;;15.23;69.75;99350.22;4921248;29;20470;-79
2022/07/20 02:08:29;;;;;;;9.68;5.47;;;;;;;15.38;69.58;99371.78;4938202;29;20051;-78
2022/07/20 02:10:56;;;;;;;10.32;5.78;;;;;;;15.60;69.07;99377.41;4937182;29;20130;-79
2022/07/20 02:13:23;;;;;;;8.70;5.10;;;;;;;15.86;68.32;99380.28;4938403;29;20082;-79
2022/07/20 02:18:36;;;;;;;11.20;5.90;;;;;;;16.36;66.38;99369.28;4937755;29;20099;-77
2022/07/20 02:21:03;;;;;;;13.75;6.60;;;;;;;16.62;65.62;99359.75;4937642;29;20500;-79
2022/07/20 02:23:30;;;;;;;12.02;6.15;;;;;;;16.93;64.21;99347.41;4938087;29;20111;-80
2022/07/20 02:25:57;;;;;;;13.88;6.22;;;;;;;17.47;62.50;99313.16;4937530;29;20078;-81
2022/07/20 02:28:24;;;;;;;10.25;6.03;;;;;;;19.96;56.46;99341.59;4937748;29;20059;-78
2022/07/20 02:30:51;;;;;;;12.20;5.50;;;;;;;22.57;49.10;99324.56;4937818;29;20497;-79
2022/07/20 02:33:18;;;;;;;12.25;5.22;;;;;;;24.35;44.29;99327.59;4937689;29;20067;-80
2022/07/20 02:35:45;;;;;;;13.25;5.13;;;;;;;25.39;41.50;99301.38;4937837;29;20059;-80
2022/07/20 02:38:12;;;;;;;9.32;4.50;;;;;;;26.92;38.66;99313.94;4937629;29;20528;-79
2022/07/20 02:40:39;;;;;;;9.65;4.10;;;;;;;27.66;36.81;99318.34;4937912;29;20058;-79
2022/07/20 02:43:06;;;;;;;15.82;4.35;;;;;;;25.70;39.69;99308.16;4937550;29;20118;-78
2022/07/20 02:45:33;;;;;;;7.18;3.50;;;;;;;23.19;44.63;99296.25;4937605;29;20051;-81
2022/07/20 02:48:03;;;;;;;7.38;3.47;;;;;;;21.78;48.16;99320.66;4936055;29;20043;-79
2022/07/20 02:50:32;;;;;;;;;;;;;;;21.42;51.19;99311.00;4936876;29;20055;-79
2022/07/20 02:53:00;;;;;;;6.00;3.58;;;;;;;24.82;42.13;99304.19;4920408;29;20296;-81
2022/07/20 02:55:27;;;;;;;8.43;3.38;;;;;;;27.72;36.23;99291.88;4937172;29;20067;-79
2022/07/20 02:57:57;;;;;;;10.30;3.50;;;;;;;29.07;33.41;99277.66;4937198;29;20052;-80
2022/07/20 03:00:24;;;;;;;;;;;;;;;30.48;34.83;99301.63;4937409;29;20056;-77
2022/07/20 03:02:52;;;;;;;7.78;3.42;;;;;;;32.05;28.92;99290.91;4935082;29;19926;-77
2022/07/20 03:05:20;;;;;;;10.80;3.47;;;;;;;32.99;27.32;99289.94;4956214;29;20059;-80
2022/07/20 03:07:46;;;;;;;8.07;3.15;;;;;;;33.73;26.08;99285.25;4956195;29;20149;-77
2022/07/20 03:10:14;;;;;;;6.80;2.92;;;;;;;34.63;24.55;99264.13;4956155;29;20126;-79
2022/07/20 03:12:41;;;;;;;8.93;3.20;;;;;;;35.78;23.10;99276.06;4956229;29;20051;-81
2022/07/20 03:15:10;;;;;;;10.07;3.20;;;;;;;36.20;22.58;99253.22;4955972;29;20082;-82
2022/07/20 03:17:49;;;;;;;6.50;3.22;;;;;;;32.36;26.89;99279.88;4957327;29;20070;-79
2022/07/20 03:20:23;;;;;;;4.25;2.88;;;;;;;29.54;31.32;99264.78;4956079;29;20055;-80
2022/07/20 03:22:50;;;;;;;9.23;3.25;;;;;;;27.70;33.64;99277.75;4956299;29;20489;-78
2022/07/20 03:25:18;;;;;;;6.70;3.13;;;;;;;26.17;36.61;99251.50;4970964;28;20497;-80
2022/07/20 03:27:45;;;;;;;8.32;2.90;;;;;;;25.14;38.91;99262.91;4955681;29;20473;-79
2022/07/20 03:30:12;;;;;;;7.43;3.10;;;;;;;25.05;39.14;99273.31;4955779;29;20058;-81
2022/07/20 03:32:39;;;;;;;9.00;2.80;;;;;;;24.35;40.55;99262.66;4955818;29;20058;-77
2022/07/20 03:35:07;;;;;;;7.50;3.10;;;;;;;25.39;38.83;99252.41;4938725;29;20060;-77
2022/07/20 03:37:34;;;;;;;7.28;2.70;;;;;;;29.97;31.01;99263.81;4936688;29;20070;-82
2022/07/20 03:40:03;;;;;;;7.93;2.78;;;;;;;33.39;26.10;99248.09;4946720;29;20102;-80
2022/07/20 03:42:30;;;;;;;;;;;;;;;34.91;26.46;99244.91;4956299;29;20491;-79
2022/07/20 03:44:58;;;;;;;4.60;2.83;;;;;;;36.58;22.42;99247.16;4955766;29;19930;-79
2022/07/20 03:47:25;;;;;;;5.18;2.55;;;;;;;36.43;21.87;99198.94;4955655;29;20065;-77
2022/07/20 03:49:53;;;;;;;10.95;2.60;;;;;;;37.95;20.62;99256.41;4940903;29;20080;-78
2022/07/20 03:52:20;;;;;;;5.80;2.60;;;;;;;39.14;19.33;99250.00;4936226;29;20091;-81
2022/07/20 03:54:48;;;;;;;7.03;2.78;;;;;;;38.11;19.91;99253.50;4936224;29;20498;-80
2022/07/20 03:57:15;;;;;;;8.68;2.53;;;;;;;34.77;23.38;99254.53;4935710;29;20059;-78
2022/07/20 03:59:42;;;;;;;8.25;2.97;;;;;;;32.19;26.76;99251.78;4934649;29;20059;-80
2022/07/20 04:02:10;;;;;;;6.25;2.80;;;;;;;30.50;29.03;99256.53;4935648;29;20070;-81
2022/07/20 04:04:45;;;;;;;8.75;2.75;;;;;;;28.95;31.85;99241.91;4935937;29;20055;-80
2022/07/20 04:07:12;;;;;;;10.65;2.75;;;;;;;27.53;33.67;99251.34;4936045;29;20098;-79
2022/07/20 04:09:45;;;;;;;10.15;2.83;;;;;;;26.75;35.26;99226.75;4934826;29;20048;-79
2022/07/20 04:12:18;;;;;;;9.88;3.03;;;;;;;26.88;35.20;99231.22;4936346;29;20055;-82
2022/07/20 04:14:46;;;;;;;7.72;2.72;;;;;;;27.24;34.77;99243.72;4936198;29;20062;-79
2022/07/20 04:17:13;;;;;;;7.57;2.92;;;;;;;27.06;35.12;99240.56;4935660;29;20063;-79
2022/07/20 04:19:40;;;;;;;7.50;2.90;;;;;;;26.45;36.07;99224.47;4933985;29;20071;-80
2022/07/20 04:22:08;;;;;;;11.07;2.75;;;;;;;26.12;36.99;99233.97;4933900;29;20466;-81
2022/07/20 04:24:36;;;;;;;6.20;3.20;;;;;;;25.27;38.08;99192.59;4940368;29;20048;-80
2022/07/20 04:27:04;;;;;;;9.02;3.00;;;;;;;24.76;39.85;99217.34;4944692;29;20063;-78
2022/07/20 04:29:32;;;;;;;7.60;2.83;;;;;;;24.49;40.42;99246.66;4944985;29;20073;-77
2022/07/20 04:32:00;;;;;;;8.50;3.13;;;;;;;24.29;41.23;99237.22;4934589;29;20055;-79
2022/07/20 04:34:27;;;;;;;11.35;3.10;;;;;;;23.81;42.13;99252.63;4936245;29;20062;-80
2022/07/20 04:36:55;;;;;;;6.65;2.50;;;;;;;23.30;43.66;99237.00;4935897;29;20052;-80
2022/07/20 04:39:23;;;;;;;6.53;3.22;;;;;;;22.66;44.75;99222.91;4935470;29;20059;-80
2022/07/20 04:41:50;;;;;;;9.80;3.10;;;;;;;22.33;45.94;99234.50;4935672;29;20115;-80
2022/07/20 04:44:18;;;;;;;13.73;3.22;;;;;;;22.16;46.62;99215.91;4935682;29;20111;-82
2022/07/20 04:46:45;;;;;;;11.57;2.88;;;;;;;21.71;47.42;99181.06;4935500;29;20574;-81
2022/07/20 04:49:14;;;;;;;10.20;2.95;;;;;;;21.67;48.07;99203.44;4935454;29;20091;-82
2022/07/20 04:51:42;;;;;;;7.90;3.17;;;;;;;21.49;48.62;99199.94;4935540;29;20098;-80
2022/07/20 04:54:10;;;;;;;8.00;3.17;;;;;;;21.27;48.80;99158.53;4935485;29;20063;-80
2022/07/20 04:56:37;;;;;;;6.95;3.00;;;;;;;21.60;48.86;99202.91;4902655;29;20605;-81
2022/07/20 04:59:05;;;;;;;9.93;3.22;;;;;;;21.85;48.38;99193.59;4934601;29;20055;-81
2022/07/20 05:01:32;;;;;;;4.38;2.42;;;;;;;22.03;48.30;99194.44;4938058;29;20069;-85
2022/07/20 05:04:00;;;;;;;10.68;3.05;;;;;;;22.08;47.97;99182.59;4954067;29;20517;-83
2022/07/20 05:06:27;;;;;;;6.68;3.08;;;;;;;21.76;48.76;99178.16;4954226;29;20061;-82
2022/07/20 05:08:55;;;;;;;3.75;2.95;;;;;;;21.45;49.34;99161.19;4954682;29;20057;-83
2022/07/20 05:11:22;;;;;;;4.72;2.63;;;;;;;21.46;49.96;99185.00;4952903;29;20505;-82
2022/07/20 05:13:50;;;;;;;7.93;3.00;;;;;;;21.39;50.23;99207.50;4939788;29;20544;-83
2022/07/20 05:16:17;;;;;;;3.70;3.22;;;;;;;21.13;50.71;99173.44;4958483;29;20146;-83
2022/07/20 05:18:44;;;;;;;9.30;4.13;;;;;;;21.18;51.25;99198.81;4959713;29;20066;-81
2022/07/20 05:21:11;;;;;;;7.28;3.50;;;;;;;20.72;52.16;99179.88;4966247;29;20099;-82
2022/07/20 05:23:38;;;;;;;6.15;3.40;;;;;;;20.40;53.38;99187.56;4951065;29;20055;-83
2022/07/20 05:26:05;;;;;;;8.10;3.45;;;;;;;20.13;54.30;99192.38;4967662;29;20051;-82
2022/07/20 05:28:33;;;;;;;6.38;3.00;;;;;;;20.05;54.83;99195.38;4964601;29;20055;-84
2022/07/20 05:31:00;;;;;;;5.93;3.20;;;;;;;19.97;54.85;99186.06;4964502;29;20070;-82
2022/07/20 05:33:27;;;;;;;5.60;2.80;;;;;;;20.04;55.13;99212.22;4964313;29;20058;-84
2022/07/20 05:35:54;;;;;;;6.50;3.28;;;;;;;19.76;55.51;99156.97;4959149;29;20055;-82
2022/07/20 05:38:21;;;;;;;6.00;2.83;;;;;;;19.73;55.16;99125.31;4954973;29;20059;-84
2022/07/20 05:40:51;;;;;;;4.93;2.75;;;;;;;20.04;55.50;99171.59;4953695;29;20130;-83
2022/07/20 05:43:18;;;;;;;3.65;2.65;;;;;;;19.55;55.89;99124.34;4938692;29;20142;-80
2022/07/20 05:45:45;;;;;;;3.85;3.03;;;;;;;19.80;56.72;99168.28;4938624;29;20391;-80
2022/07/20 05:48:15;;;;;;;9.27;3.77;;;;;;;19.82;56.40;99175.22;4938626;29;20055;-81
2022/07/20 05:50:43;;;;;;;5.00;3.42;;;;;;;19.52;57.10;99147.44;4938503;29;20146;-81
2022/07/20 05:53:12;;;;;;;4.57;3.50;;;;;;;19.40;57.95;99172.66;4938450;29;20056;-83
2022/07/20 05:55:41;;;;;;;5.35;2.97;;;;;;;19.20;58.58;99155.00;4940268;29;20063;-81
2022/07/20 05:58:10;;;;;;;;;;;;;;;18.80;58.38;99152.28;4941147;29;20150;-85
2022/07/20 06:00:37;;;;;;;6.13;3.03;;;;;;;18.87;59.92;99158.16;4940608;29;19927;-83
2022/07/20 06:03:06;;;;;;;4.35;3.35;;;;;;;18.77;59.86;99155.00;4939443;29;20107;-82
2022/07/20 06:05:33;;;;;;;5.43;3.72;;;;;;;18.45;61.18;99132.50;4938895;29;20048;-83
2022/07/20 06:08:02;;;;;;;6.20;3.72;;;;;;;18.45;61.12;99143.09;4938984;29;20147;-81
2022/07/20 06:10:32;;;;;;;6.68;3.50;;;;;;;18.28;62.36;99119.97;4941825;29;20047;-85
2022/07/20 06:13:00;;;;;;;5.28;3.78;;;;;;;18.20;62.11;99109.72;4948617;29;20051;-80
2022/07/20 06:15:36;;;;;;;5.85;4.03;;;;;;;18.30;63.47;99151.63;4943850;29;20056;-82
2022/07/20 06:18:03;;;;;;;6.13;3.90;;;;;;;18.11;63.99;99106.56;4949881;29;20493;-81
2022/07/20 06:20:31;;;;;;;6.35;4.10;;;;;;;18.22;64.45;99136.09;4949869;29;20596;-81
2022/07/20 06:22:59;;;;;;;5.35;4.13;;;;;;;18.07;64.83;99134.91;4958417;29;20090;-84
2022/07/20 06:25:27;;;;;;;6.68;5.15;;;;;;;17.93;65.64;99100.22;4957103;28;20106;-82
2022/07/20 06:27:57;;;;;;;5.72;4.00;;;;;;;17.93;65.92;99110.78;4974385;28;20093;-81
2022/07/20 06:30:24;;;;;;;5.93;3.72;;;;;;;17.86;66.62;99104.03;4966378;29;20082;-81
2022/07/20 06:32:52;;;;;;;5.53;3.53;;;;;;;17.55;67.32;99062.91;4990507;28;20055;-80
2022/07/20 06:35:21;;;;;;;5.05;4.45;;;;;;;17.64;68.12;99094.25;4975968;29;20058;-81
2022/07/20 06:37:48;;;;;;;3.50;3.20;;;;;;;17.29;68.06;99066.50;4967595;29;20054;-81
2022/07/20 06:40:16;;;;;;;3.25;2.88;;;;;;;17.42;68.66;99088.03;4959824;29;20055;-80
2022/07/20 06:42:43;;;;;;;5.28;4.57;;;;;;;17.47;68.60;99073.75;4945398;29;20083;-82
2022/07/20 06:45:10;;;;;;;5.00;2.90;;;;;;;17.52;68.56;99074.44;4933609;29;20453;-81
2022/07/20 06:47:37;;;;;;;5.38;2.97;;;;;;;17.49;68.21;99053.44;4949445;29;20425;-81
2022/07/20 06:50:05;;;;;;;2.80;2.50;;;;;;;17.62;68.47;99051.19;4944265;29;20569;-81
2022/07/20 06:52:33;;;;;;;5.75;3.58;;;;;;;18.12;67.50;99063.38;4945302;29;20059;-82
2022/07/20 06:55:01;;;;;;;4.30;2.10;;;;;;;18.44;66.87;99092.94;4945534;29;20059;-83
2022/07/20 06:57:29;;;;;;;5.38;2.67;;;;;;;18.46;66.25;99089.31;4929677;29;20065;-82
2022/07/20 06:59:56;;;;;;;2.50;2.10;;;;;;;18.39;66.36;99086.06;4944277;29;20057;-83
2022/07/20 07:02:22;;;;;;;3.60;2.50;;;;;;;18.19;66.91;99063.03;4943966;29;20054;-82
2022/07/20 07:04:50;;;;;;;2.67;2.47;;;;;;;18.18;67.26;99061.34;4946473;29;20051;-81
2022/07/20 07:07:17;;;;;;;2.78;2.33;;;;;;;18.11;67.50;99054.59;4945321;29;20191;-84
2022/07/20 07:09:44;;;;;;;2.30;2.10;;;;;;;18.14;66.88;99049.16;4927428;29;20058;-80
2022/07/20 07:12:12;;;;;;;4.35;1.65;;;;;;;18.10;66.88;99065.22;4942122;29;20099;-83
2022/07/20 07:14:39;;;;;;;5.15;2.10;;;;;;;17.57;67.65;99018.81;4944816;29;20051;-81
2022/07/20 07:17:06;;;;;;;2.88;2.17;;;;;;;17.71;68.50;99048.19;4946143;29;20510;-81
2022/07/20 07:19:34;;;;;;;4.03;2.15;;;;;;;17.63;68.32;99038.84;4927682;29;20087;-81
2022/07/20 07:22:02;;;;;;;3.40;2.17;;;;;;;17.75;68.25;99046.31;4944821;29;20051;-81
2022/07/20 07:24:29;;;;;;;5.28;1.88;;;;;;;17.88;67.47;99058.13;4943236;29;20051;-83
2022/07/20 07:26:56;;;;;;;3.13;1.85;;;;;;;17.73;67.80;99027.88;4927815;29;20043;-82
2022/07/20 07:29:26;;;;;;;2.17;1.92;;;;;;;17.99;67.67;99040.06;4945038;29;20057;-82
2022/07/20 07:31:58;;;;;;;2.65;2.10;;;;;;;17.97;67.12;99028.72;4944726;29;20065;-82
2022/07/20 07:34:28;;;;;;;1.85;1.70;;;;;;;18.03;66.97;99022.31;4946755;29;20586;-82
2022/07/20 07:36:55;;;;;;;2.80;2.05;;;;;;;18.27;66.07;99009.03;4947362;28;20492;-81
2022/07/20 07:39:22;;;;;;;2.65;2.20;;;;;;;18.31;65.53;99018.56;4945491;29;20060;-82
2022/07/20 07:41:49;;;;;;;1.90;1.70;;;;;;;18.42;66.26;99048.03;4937864;29;20059;-83
2022/07/20 07:44:17;;;;;;;2.00;1.85;;;;;;;18.58;65.68;99040.31;4939533;29;20106;-81
2022/07/20 07:46:43;;;;;;;4.07;2.45;;;;;;;18.18;66.30;98986.50;4940463;29;20087;-81
2022/07/20 07:49:11;;;;;;;4.38;2.60;;;;;;;18.53;66.26;99045.81;4937057;29;20055;-82
2022/07/20 07:51:38;;;;;;;4.55;2.15;;;;;;;18.57;65.57;99023.59;4945437;29;20110;-82
2022/07/20 07:54:05;;;;;;;3.70;2.30;;;;;;;18.31;66.29;99026.47;4943597;29;20047;-78
2022/07/20 07:56:32;;;;;;;3.30;2.42;;;;;;;18.34;66.08;99029.00;4937361;29;20091;-82
2022/07/20 07:58:59;;;;;;;2.35;2.08;;;;;;;18.63;65.13;99025.13;4929527;29;20059;-81
2022/07/20 08:01:47;;;;;;;2.10;1.90;;;;;;;18.88;63.79;99024.94;4936217;29;20065;-79
2022/07/20 08:04:15;;;;;;;2.50;2.30;;;;;;;18.62;64.38;98970.50;4951118;29;20146;-79
2022/07/20 08:06:42;;;;;;;3.05;2.03;;;;;;;18.80;64.46;99014.69;4934963;29;20115;-81
2022/07/20 08:09:09;;;;;;;2.42;2.10;;;;;;;18.55;65.43;98991.06;4924392;29;20514;-80
2022/07/20 08:11:36;;;;;;;2.03;1.80;;;;;;;18.70;65.01;99012.50;4916831;29;20064;-80
2022/07/20 08:14:04;;;;;;;2.63;1.88;;;;;;;18.61;65.03;99014.59;4916709;29;20055;-82
2022/07/20 08:16:31;;;;;;;2.83;1.83;;;;;;;18.89;64.57;99010.78;4931926;29;20565;-80
2022/07/20 08:19:00;;;;;;;3.10;2.00;;;;;;;19.26;63.07;98997.69;4935627;29;20462;-80
2022/07/20 08:21:26;;;;;;;2.70;1.63;;;;;;;19.56;62.39;98992.75;4922597;29;20684;-81
2022/07/20 08:24:03;;;;;;;2.67;1.80;;;;;;;19.58;62.04;98975.84;4916591;29;20079;-79
2022/07/20 08:26:30;;;;;;;2.53;1.58;;;;;;;19.80;61.80;98988.94;4916513;29;20079;-81
2022/07/20 08:28:57;;;;;;;1.40;1.30;;;;;;;20.11;59.95;98976.88;4928485;29;20059;-81
2022/07/20 08:31:24;;;;;;;1.50;1.40;;;;;;;20.22;60.41;98976.34;4935230;29;20062;-80
2022/07/20 08:33:51;;;;;;;1.45;1.35;;;;;;;20.37;59.30;98964.94;4919271;29;20064;-80
2022/07/20 08:36:19;;;;;;;1.30;1.20;;;;;;;20.45;59.11;98983.97;4916961;29;20052;-82
2022/07/20 08:38:46;;;;;;;1.50;1.40;;;;;;;20.39;58.74;98939.22;4934946;29;20055;-81
2022/07/20 08:41:15;;;;;;;1.98;1.60;;;;;;;20.54;58.51;98969.38;4931987;29;20060;-85
2022/07/20 08:43:42;;;;;;;1.48;1.38;;;;;;;20.40;58.95;98954.16;4916572;29;20103;-79
2022/07/20 08:46:11;;;;;;;1.50;1.40;;;;;;;20.60;57.78;98920.47;4931006;29;20131;-82
2022/07/20 08:48:41;;;;;;;1.23;1.13;;;;;;;20.84;56.58;98890.00;4934237;29;20047;-80
2022/07/20 08:51:09;;;;;;;1.42;1.20;;;;;;;21.35;56.00;98952.72;4935351;29;20063;-82
2022/07/20 08:53:36;;;;;;;1.13;1.02;;;;;;;21.31;55.70;98945.88;4934838;29;20434;-82
2022/07/20 08:56:09;;;;;;;1.25;1.15;;;;;;;21.12;55.32;98930.94;4934876;29;20433;-80
2022/07/20 08:58:36;;;;;;;1.30;1.20;;;;;;;21.06;56.11;98941.91;4917833;29;20514;-84
2022/07/20 09:01:05;;;;;;;1.17;1.08;;;;;;;20.98;56.10;98929.03;4935463;29;20501;-82
2022/07/20 09:03:32;;;;;;;1.15;1.15;;;;;;;20.61;55.98;98861.19;4917897;29;20048;-79
2022/07/20 09:06:05;;;;;;;2.28;1.73;;;;;;;20.97;55.21;98913.19;4935004;29;20061;-82
2022/07/20 09:08:33;;;;;;;1.52;1.42;;;;;;;20.78;55.10;98914.19;4934728;29;20055;-79
2022/07/20 09:11:02;;;;;;;1.60;1.50;;;;;;;21.00;55.24;98908.59;4918125;29;20059;-82
2022/07/20 09:13:31;;;;;;;1.50;1.40;;;;;;;21.18;53.96;98884.63;4934845;29;20061;-81
2022/07/20 09:15:59;;;;;;;1.35;1.25;;;;;;;21.35;52.48;98892.50;4935206;29;20150;-81
2022/07/20 09:18:32;;;;;;;1.40;1.30;;;;;;;21.51;52.47;98891.66;4935015;29;20178;-81
2022/07/20 09:21:05;;;;;;;1.70;1.40;;;;;;;21.60;53.02;98896.47;4924030;28;20407;-80
2022/07/20 09:23:44;;;;;;;1.65;1.55;;;;;;;21.67;52.39;98909.28;4934865;29;20498;-83
2022/07/20 09:26:11;;;;;;;1.48;1.38;;;;;;;21.82;51.98;98898.72;4949975;29;20581;-82
2022/07/20 09:28:49;;;;;;;1.23;1.15;;;;;;;21.94;51.35;98895.38;4935289;29;20071;-84
2022/07/20 09:31:33;;;;;;;1.27;1.27;;;;;;;21.61;51.68;98898.16;4950723;29;20056;-82
2022/07/20 09:34:13;;;;;;;1.65;1.27;;;;;;;21.01;51.84;98859.84;4934870;29;20083;-81
2022/07/20 09:36:42;;;;;;;1.37;1.27;;;;;;;21.68;50.38;98902.16;4934711;29;20172;-82
2022/07/20 09:39:10;;;;;;;1.90;1.80;;;;;;;22.13;50.46;98913.72;4933461;29;20730;-84
2022/07/20 09:41:40;;;;;;;11.00;6.70;;;;;;;22.19;50.36;98854.00;4942802;29;20051;-82
2022/07/20 09:44:19;;;;;;;4.22;2.90;;;;;;;22.67;49.49;98902.53;4943520;29;20461;-82
2022/07/20 09:46:46;;;;;;;3.33;1.90;;;;;;;22.71;49.66;98909.38;4940362;29;20134;-82
2022/07/20 09:49:13;;;;;;;4.90;2.72;;;;;;;22.70;48.46;98883.72;4943852;29;20118;-81
2022/07/20 09:51:44;;;;;;;;;;;;;;;22.81;49.41;98893.72;4942813;29;20051;-81
2022/07/20 09:54:14;;;;;;;3.17;1.55;;;;;;;22.87;47.25;98883.53;4932778;29;19926;-83
2022/07/20 09:56:44;;;;;;;1.20;1.20;;;;;;;22.84;47.74;98880.19;4946435;29;20043;-80
2022/07/20 09:59:13;;;;;;;1.65;1.17;;;;;;;22.59;47.85;98838.31;4930361;29;20071;-83
2022/07/20 10:01:45;;;;;;;2.97;1.20;;;;;;;22.62;47.74;98852.25;4956877;29;20149;-84
2022/07/20 10:04:13;;;;;;;1.55;1.35;;;;;;;22.99;47.29;98881.03;4950814;29;20060;-82
2022/07/20 10:06:43;;;;;;;5.45;3.33;;;;;;;22.85;46.06;98831.34;4919125;29;20115;-80
2022/07/20 10:09:14;;;;;;;5.85;4.10;;;;;;;23.10;46.37;98867.91;4921168;29;20075;-81
2022/07/20 10:11:42;;;;;;;5.97;3.92;;;;;;;23.18;46.35;98875.44;4937883;29;20062;-81
2022/07/20 10:14:10;;;;;;;5.80;3.80;;;;;;;23.20;46.10;98871.72;4936485;29;20594;-81
2022/07/20 10:16:47;;;;;;;2.42;1.90;;;;;;;23.28;45.50;98856.09;4937741;29;20213;-81
2022/07/20 10:19:15;;;;;;;1.80;1.70;;;;;;;23.16;46.06;98859.53;4938106;29;20094;-80
2022/07/20 10:21:47;;;;;;;2.65;1.92;;;;;;;22.95;46.17;98853.78;4936926;29;20064;-84
2022/07/20 10:24:33;;;;;;;3.00;2.10;;;;;;;22.36;47.08;98845.88;4937634;29;20056;-82
2022/07/20 10:27:03;;;;;;;3.85;2.10;;;;;;;22.38;47.83;98843.13;4937540;29;20086;-81
2022/07/20 10:29:41;;;;;;;2.65;2.28;;;;;;;22.46;47.89;98840.88;4937701;29;20056;-80
2022/07/20 10:32:11;;;;;;;6.35;2.42;;;;;;;22.51;47.67;98840.59;4937733;29;20114;-80
2022/07/20 10:34:55;;;;;;;3.90;2.10;;;;;;;22.76;47.21;98838.09;4937383;29;20111;-82
2022/07/20 10:37:25;;;;;;;11.43;6.78;;;;;;;22.98;47.53;98839.41;4936188;29;20517;-81
2022/07/20 10:39:59;;;;;;;5.13;4.00;;;;;;;23.04;46.87;98797.28;4938062;29;20060;-78
2022/07/20 10:42:35;;;;;;;7.07;2.95;;;;;;;23.39;45.90;98803.94;4936544;29;20059;-82
2022/07/20 10:45:11;;;;;;;4.25;1.88;;;;;;;23.39;45.37;98831.41;4937627;29;20055;-83
2022/07/20 10:47:41;;;;;;;3.53;1.83;;;;;;;22.60;46.58;98795.59;4954598;29;20510;-83
2022/07/20 10:50:31;;;;;;;4.53;1.90;;;;;;;22.39;46.77;98796.94;4936444;29;20521;-80
2022/07/20 10:53:11;;;;;;;6.05;3.95;;;;;;;23.08;45.92;98828.09;4937564;29;20514;-80
2022/07/20 10:55:38;;;;;;;1.85;1.30;;;;;;;23.49;45.11;98819.19;4937058;29;20433;-80
2022/07/20 10:58:10;;;;;;;1.92;1.38;;;;;;;23.62;44.72;98807.72;4936172;29;20051;-81
2022/07/20 11:00:40;;;;;;;2.75;1.50;;;;;;;23.58;44.94;98801.75;4937389;29;20082;-81
2022/07/20 11:03:17;;;;;;;7.35;4.88;;;;;;;23.92;44.84;98819.00;4937366;29;20577;-83
2022/07/20 11:05:46;;;;;;;1.85;1.60;;;;;;;24.09;44.19;98815.19;4937179;29;20426;-81
2022/07/20 11:08:16;;;;;;;2.28;1.20;;;;;;;23.83;43.42;98787.66;4937386;28;20118;-79
2022/07/20 11:10:43;;;;;;;5.45;2.65;;;;;;;23.54;44.02;98791.41;4936370;29;20256;-80
2022/07/20 11:13:12;;;;;;;1.98;1.60;;;;;;;23.74;43.44;98814.03;4937409;29;20051;-80
2022/07/20 11:15:44;;;;;;;1.67;1.10;;;;;;;23.52;42.92;98792.34;4937420;29;20502;-81
2022/07/20 11:18:13;;;;;;;2.20;1.48;;;;;;;23.41;43.25;98808.19;4944624;29;20071;-79
2022/07/20 11:20:50;;;;;;;2.08;1.30;;;;;;;23.51;42.93;98795.97;4922978;29;20154;-82
2022/07/20 11:23:21;;;;;;;1.50;1.40;;;;;;;23.47;42.95;98785.63;4956170;29;20199;-81
2022/07/20 11:25:52;;;;;;;3.30;1.90;;;;;;;23.51;42.82;98801.31;4955925;29;20463;-82
2022/07/20 11:28:28;;;;;;;1.52;1.20;;;;;;;22.72;44.59;98777.19;4956606;29;20063;-80
2022/07/20 11:30:57;;;;;;;2.42;1.33;;;;;;;22.17;46.10;98779.63;4937084;29;20054;-84
2022/07/20 11:33:27;;;;;;;2.25;1.40;;;;;;;21.98;46.48;98790.53;4944244;29;20056;-79
2022/07/20 11:35:58;;;;;;;2.50;1.02;;;;;;;22.17;46.45;98798.25;4947507;29;20047;-79
2022/07/20 11:38:43;;;;;;;2.15;1.70;;;;;;;22.45;45.28;98780.59;4942952;29;20110;-81
2022/07/20 11:41:15;;;;;;;1.30;1.20;;;;;;;22.69;43.93;98789.72;4939154;29;20051;-82
2022/07/20 11:43:50;;;;;;;1.55;1.45;;;;;;;22.74;43.45;98785.91;4955876;29;20142;-81
2022/07/20 11:46:24;;;;;;;1.77;1.30;;;;;;;22.73;42.44;98792.19;4955651;29;20047;-81